Latest Weather Observations for Edinburgh

IDS60901

Issued at 2:31 pm CST Thursday 21 September 2017 (issued every 10 minutes, with the page automatically refreshed every 10 minutes)

About weather observations | Map of Adelaide area stations | Latest observations for Adelaide area | Other Formats
Station Details ID: 023083 Name: EDINBURGH RAAF Lat: -34.71 Lon: 138.62 Height: 16.54 m
Data from the previous 72 hours. | See also: Recent months at Edinburgh
Date/Time
CST
Temp
°C
App
Temp
°C
Dew
Point
°C
Rel
Hum
%
Delta-T
°C
Wind Press
QNH
hPa
Press
MSL
hPa
Rain since
9am
mm
Dir  Spd
km/h
Gust
km/h
Spd
kts
Gust
kts
21/02:00pm 18.5 16.3 13.4 72 2.9 SW 17 24 9 13 1010.4 1010.3 0.0
21/01:30pm 17.9 15.0 12.4 70 3.1 SW 19 28 10 15 1010.5 1010.4 0.0
21/01:00pm 17.8 15.1 12.9 73 2.7 SW 19 24 10 13 1010.7 1010.6 0.0
21/12:30pm 17.7 15.7 13.8 78 2.2 WSW 17 22 9 12 1010.9 1010.8 0.0
21/12:00pm 17.6 16.0 12.9 74 2.6 W 13 20 7 11 1011.1 1011.0 0.0
21/11:30am 17.3 14.9 12.6 74 2.6 W 17 22 9 12 1011.2 1011.1 0.0
21/11:00am 17.4 15.5 13.1 76 2.4 WSW 15 19 8 10 1011.2 1011.1 0.0
21/10:30am 17.7 16.8 12.6 72 2.8 W 9 15 5 8 1011.2 1011.1 0.0
21/10:00am 16.8 15.2 11.5 71 2.9 W 11 15 6 8 1011.5 1011.4 0.0
21/09:30am 16.7 14.7 11.4 71 2.9 W 13 17 7 9 1011.6 1011.5 0.0
21/09:00am 16.3 14.0 7.3 55 4.5 N 9 11 5 6 1011.5 1011.4 0.0
21/08:30am 15.4 12.8 6.2 54 4.5 NNW 9 13 5 7 1011.6 1011.5 0.0
21/08:00am 14.4 10.8 3.2 47 5.0 NNW 11 15 6 8 1011.7 1011.6 0.0
21/07:30am 13.3 8.9 2.8 49 4.6 N 15 20 8 11 1011.5 1011.4 0.0
21/07:00am 12.3 6.8 1.6 48 4.6 NE 20 24 11 13 1010.7 1010.6 0.0
21/06:30am 11.5 6.1 1.5 50 4.2 NE 19 20 10 11 1010.5 1010.4 0.0
21/06:00am 11.1 6.1 1.4 51 4.1 NNE 17 20 9 11 1010.5 1010.4 0.0
21/05:30am 11.4 6.7 1.1 49 4.3 NE 15 17 8 9 1010.4 1010.3 0.0
21/05:00am 12.1 8.1 0.5 45 4.8 NNE 11 15 6 8 1010.2 1010.1 0.0
21/04:30am 11.3 7.1 1.8 52 4.0 WSW 13 19 7 10 1010.0 1009.9 0.0
21/04:00am 14.3 10.7 0.9 40 5.7 NNE 9 11 5 6 1009.1 1009.0 0.0
21/03:30am 14.9 10.5 0.4 37 6.2 NE 13 19 7 10 1008.4 1008.4 0.0
21/03:00am 15.2 10.0 -0.1 35 6.5 NE 17 20 9 11 1008.5 1008.5 0.0
21/02:30am 16.2 10.5 -0.9 31 7.2 NE 19 26 10 14 1008.3 1008.3 0.0
21/02:00am 15.8 9.9 -0.8 32 6.9 NE 20 26 11 14 1009.1 1009.0 0.0
21/01:30am 16.9 10.1 -1.7 28 7.7 NE 24 32 13 17 1009.3 1009.2 0.0
21/01:00am 16.4 9.7 -1.2 30 7.3 NE 24 28 13 15 1009.6 1009.5 0.0
21/12:30am 17.5 10.8 -1.2 28 7.9 NE 24 33 13 18 1009.9 1009.8 0.0
21/12:00am 16.7 9.6 -0.9 30 7.4 NE 26 32 14 17 1010.2 1010.1 0.0
 
Date/Time
CST
Temp
°C
App
Temp
°C
Dew
Point
°C
Rel
Hum
%
Delta-T
°C
Wind Press
QNH
hPa
Press
MSL
hPa
Rain since
9am
mm
Dir  Spd
km/h
Gust
km/h
Spd
kts
Gust
kts
20/11:30pm 16.9 10.3 -0.3 31 7.4 NE 24 35 13 19 1010.6 1010.5 0.0
20/11:00pm 16.5 10.1 1.0 35 6.8 NE 24 33 13 18 1010.7 1010.6 0.0
20/10:30pm 16.1 10.2 1.4 37 6.5 NE 22 28 12 15 1011.3 1011.2 0.0
20/10:00pm 15.1 9.9 3.6 46 5.3 NE 20 26 11 14 1011.4 1011.3 0.0
20/09:30pm 15.3 10.1 3.8 46 5.3 NE 20 24 11 13 1011.7 1011.6 0.0
20/09:00pm 15.4 10.4 4.5 48 5.1 NE 20 24 11 13 1012.1 1012.1 0.0
20/08:30pm 15.4 10.7 6.2 54 4.4 NE 20 22 11 12 1012.1 1012.1 0.0
20/08:00pm 15.7 11.8 7.2 57 4.2 NE 17 20 9 11 1012.3 1012.3 0.0
20/07:30pm 14.7 11.4 8.0 64 3.3 NE 15 17 8 9 1012.2 1012.2 0.0
20/07:00pm 16.1 12.1 8.1 59 4.0 NE 19 20 10 11 1011.9 1011.8 0.0
20/06:30pm 16.8 13.8 7.7 55 4.6 NE 13 15 7 8 1012.0 1012.0 0.0
20/06:00pm 18.8 16.6 7.9 49 5.6 ENE 9 11 5 6 1012.0 1012.0 0.0
20/05:30pm 19.2 16.8 8.8 51 5.4 NE 11 15 6 8 1012.2 1012.2 0.0
20/05:00pm 20.4 17.8 9.3 49 5.9 NE 13 17 7 9 1012.3 1012.3 0.0
20/04:30pm 21.4 16.8 8.3 43 6.9 NNE 22 28 12 15 1012.6 1012.6 0.0
20/04:00pm 21.8 16.6 5.7 35 8.1 NNE 22 30 12 16 1012.8 1012.8 0.0
20/03:30pm 21.8 16.5 6.9 38 7.6 NNE 24 32 13 17 1013.1 1013.1 0.0
20/03:00pm 20.7 16.0 7.7 43 6.7 N 22 28 12 15 1013.7 1013.7 0.0
20/02:30pm 20.8 15.6 5.6 37 7.5 N 22 35 12 19 1014.4 1014.4 0.0
20/02:00pm 21.8 16.5 6.9 38 7.6 N 24 33 13 18 1014.6 1014.6 0.0
20/01:30pm 21.0 16.3 7.6 42 6.9 N 22 32 12 17 1015.1 1015.1 0.0
20/01:00pm 20.7 16.0 5.9 38 7.4 N 20 28 11 15 1015.6 1015.6 0.0
20/12:30pm 20.7 15.7 6.3 39 7.2 NNW 22 30 12 16 1016.4 1016.4 0.0
20/12:00pm 19.9 14.6 6.6 42 6.7 NNW 24 32 13 17 1017.0 1017.0 0.0
20/11:30am 19.9 15.6 7.0 43 6.5 N 19 24 10 13 1017.7 1017.7 0.0
20/11:00am 18.6 14.8 7.7 49 5.6 NNE 17 22 9 12 1018.2 1018.2 0.0
20/10:30am 17.8 14.6 8.6 55 4.7 NNE 15 20 8 11 1018.9 1018.9 0.0
20/10:00am 16.8 13.3 7.4 54 4.7 NNE 15 22 8 12 1019.0 1019.0 0.0
20/09:30am 15.6 11.7 6.9 56 4.3 N 17 22 9 12 1019.5 1019.5 0.0
20/09:00am 14.8 10.9 7.1 60 3.8 NNE 17 22 9 12 1019.6 1019.6 0.0
20/08:30am 14.0 10.1 7.1 63 3.4 NE 17 22 9 12 1019.6 1019.6 0.0
20/08:00am 12.6 9.4 6.9 68 2.7 NE 13 19 7 10 1019.7 1019.7 0.0
20/07:30am 11.5 6.8 6.2 70 2.5 NE 20 26 11 14 1019.0 1019.0 0.0
20/07:00am 11.1 6.6 6.3 72 2.3 NE 19 24 10 13 1018.8 1018.8 0.0
20/06:30am 9.3 5.1 5.7 78 1.6 NE 17 19 9 10 1018.8 1018.8 0.0
20/06:00am 9.0 4.7 5.2 77 1.7 NE 17 19 9 10 1019.1 1019.1 0.0
20/05:30am 9.2 5.4 5.6 78 1.6 NE 15 19 8 10 1019.2 1019.2 0.0
20/05:00am 7.7 4.8 4.7 81 1.3 NE 9 13 5 7 1019.3 1019.3 0.0
20/04:30am 8.3 5.5 5.2 81 1.4 ENE 9 11 5 6 1019.2 1019.2 0.0
20/04:00am 7.7 4.1 4.8 82 1.3 NE 13 15 7 8 1019.2 1019.2 0.0
20/03:30am 8.5 4.6 5.3 80 1.4 NE 15 17 8 9 1019.3 1019.3 0.0
20/03:00am 7.1 3.5 4.8 85 1.0 NE 13 15 7 8 1019.5 1019.5 0.0
20/02:30am 7.3 3.7 5.0 85 1.0 NE 13 17 7 9 1019.7 1019.7 0.0
20/02:00am 6.8 3.9 4.6 86 1.0 NE 9 13 5 7 1020.2 1020.2 0.0
20/01:30am 7.4 4.6 5.0 85 1.1 ENE 9 11 5 6 1020.7 1020.7 0.0
20/01:00am 7.1 3.9 4.9 86 1.0 NE 11 11 6 6 1021.0 1021.0 0.0
20/12:30am 7.1 3.5 5.1 87 0.9 NE 13 15 7 8 1020.9 1020.9 0.0
20/12:00am 6.7 3.4 4.5 86 0.9 NE 11 11 6 6 1021.4 1021.4 0.0
 
Date/Time
CST
Temp
°C
App
Temp
°C
Dew
Point
°C
Rel
Hum
%
Delta-T
°C
Wind Press
QNH
hPa
Press
MSL
hPa
Rain since
9am
mm
Dir  Spd
km/h
Gust
km/h
Spd
kts
Gust
kts
19/11:30pm 7.3 4.5 5.1 86 1.0 NE 9 11 5 6 1021.8 1021.8 0.0
19/11:00pm 7.1 3.9 5.1 87 0.9 NE 11 13 6 7 1022.0 1022.0 0.0
19/10:30pm 7.3 4.5 5.0 85 1.0 NE 9 9 5 5 1022.5 1022.5 0.0
19/10:00pm 7.9 5.1 5.2 83 1.2 NE 9 11 5 6 1022.7 1022.7 0.0
19/09:30pm 8.1 5.4 5.6 84 1.1 NE 9 11 5 6 1022.8 1022.8 0.0
19/09:00pm 9.3 6.6 5.5 77 1.7 E 9 11 5 6 1022.9 1022.9 0.0
19/08:30pm 10.8 8.6 6.0 72 2.2 ENE 7 9 4 5 1023.1 1023.1 0.0
19/08:00pm 10.6 8.5 5.6 71 2.3 ENE 6 7 3 4 1023.2 1023.2 0.0
19/07:30pm 11.7 9.6 5.6 66 2.8 ESE 6 7 3 4 1023.1 1023.1 0.0
19/07:00pm 12.1 10.0 5.9 66 2.9 S 6 9 3 5 1023.0 1023.0 0.0
19/06:30pm 12.4 10.3 5.6 63 3.2 WSW 6 6 3 3 1023.0 1023.0 0.0
19/06:00pm 12.7 10.8 6.5 66 2.9 WSW 6 6 3 3 1022.8 1022.8 0.0
19/05:30pm 12.9 10.5 7.1 68 2.8 WSW 9 9 5 5 1022.8 1022.8 0.0
19/05:00pm 13.8 10.6 5.2 56 4.0 W 11 15 6 8 1022.9 1022.9 0.0
19/04:30pm 14.7 11.8 6.3 57 4.0 WSW 11 17 6 9 1023.0 1023.0 0.0
19/04:00pm 14.6 11.2 5.9 56 4.2 W 13 17 7 9 1023.1 1023.1 0.0
19/03:30pm 14.9 10.9 6.7 58 4.0 W 17 24 9 13 1023.2 1023.2 0.0
19/03:00pm 14.6 12.1 4.6 51 4.6 NW 7 13 4 7 1023.3 1023.3 0.0
19/02:30pm 14.9 11.3 4.9 51 4.7 WNW 13 19 7 10 1023.6 1023.6 0.0
19/02:00pm 15.1 12.9 7.9 62 3.6 WNW 9 19 5 10 1023.8 1023.8 0.0
19/01:30pm 14.6 11.4 6.9 60 3.7 WSW 13 20 7 11 1024.1 1024.1 0.0
19/01:00pm 14.4 11.2 6.7 60 3.7 WSW 13 22 7 12 1024.3 1024.3 0.0
19/12:30pm 14.0 9.7 6.8 62 3.5 W 19 22 10 12 1024.8 1024.8 0.0
19/12:00pm 13.5 9.2 7.7 68 2.8 W 20 30 11 16 1025.2 1025.2 0.0
19/11:30am 13.4 8.6 4.6 55 4.0 WSW 19 28 10 15 1025.2 1025.2 0.0
19/11:00am 14.2 10.5 6.1 58 3.9 SW 15 22 8 12 1025.2 1025.2 0.0
19/10:30am 13.6 9.7 7.2 65 3.1 WSW 17 22 9 12 1025.2 1025.2 0.0
19/10:00am 13.2 8.9 5.4 59 3.6 SSW 17 22 9 12 1025.3 1025.3 0.0
19/09:30am 12.6 8.5 6.2 65 3.0 SW 17 22 9 12 1025.3 1025.3 0.0
19/09:00am 12.8 9.4 5.9 63 3.2 S 13 22 7 12 1025.2 1025.2 2.8
19/08:30am 12.2 7.6 5.6 64 3.1 SW 19 22 10 12 1024.9 1024.9 2.8
19/08:00am 12.5 8.4 6.3 66 2.9 SW 17 20 9 11 1024.8 1024.8 2.8
19/07:30am 11.5 8.6 6.6 72 2.3 SW 11 15 6 8 1024.6 1024.6 2.8
19/07:00am 10.0 7.4 6.0 76 1.8 SSW 9 13 5 7 1024.2 1024.2 2.8
19/06:30am 8.9 5.4 5.3 78 1.6 SW 13 19 7 10 1023.9 1023.9 2.8
19/06:00am 8.2 4.7 5.5 83 1.2 SW 13 15 7 8 1023.5 1023.5 2.8
19/05:30am 9.3 5.7 6.6 83 1.2 SW 15 17 8 9 1023.1 1023.1 2.8
19/05:00am 10.8 6.7 7.9 82 1.4 WSW 19 26 10 14 1022.8 1022.8 2.8
19/04:30am 10.6 6.4 5.8 72 2.2 SW 17 20 9 11 1022.5 1022.5 2.8
19/04:00am 10.6 6.1 6.2 74 2.0 SW 19 24 10 13 1022.3 1022.3 2.8
19/03:30am 10.0 6.5 7.1 82 1.4 WSW 15 20 8 11 1022.1 1022.1 2.8
19/03:00am 10.5 6.2 7.7 83 1.3 WSW 20 26 11 14 1022.0 1022.0 2.8
19/02:30am 11.2 6.6 6.5 73 2.2 SW 20 28 11 15 1022.1 1022.1 2.8
19/02:00am 10.7 6.2 6.3 74 2.1 SW 19 24 10 13 1022.0 1022.0 2.8
19/01:30am 10.6 5.5 6.0 73 2.1 SW 22 35 12 19 1022.2 1022.2 2.8
19/01:00am 10.5 6.2 7.7 83 1.3 WSW 20 30 11 16 1022.4 1022.4 2.8
19/12:30am 10.3 7.0 8.1 86 1.1 WSW 15 20 8 11 1022.5 1022.5 2.8
19/12:00am 9.9 5.7 7.3 84 1.2 WSW 19 24 10 13 1022.2 1022.2 2.8
 
Date/Time
CST
Temp
°C
App
Temp
°C
Dew
Point
°C
Rel
Hum
%
Delta-T
°C
Wind Press
QNH
hPa
Press
MSL
hPa
Rain since
9am
mm
Dir  Spd
km/h
Gust
km/h
Spd
kts
Gust
kts
18/11:30pm 10.3 3.8 8.2 87 1.0 SW 32 44 17 24 1022.1 1022.1 2.8
18/11:22pm 10.8 4.3 8.2 84 1.3 WSW 32 44 17 24 1022.0 1022.0 2.8
18/11:00pm 10.7 6.0 7.8 82 1.4 W 22 26 12 14 1022.0 1022.0 2.8
18/10:30pm 10.9 7.2 8.0 82 1.4 W 17 28 9 15 1021.9 1021.9 2.8
18/10:00pm 10.6 5.5 7.7 82 1.4 SW 24 33 13 18 1021.9 1021.9 2.8
18/09:30pm 10.4 4.1 7.5 82 1.4 SW 30 44 16 24 1021.8 1021.8 2.8
18/09:00pm 11.1 5.7 6.3 72 2.2 WSW 24 33 13 18 1021.7 1021.7 2.6
18/08:30pm 11.6 5.1 6.5 71 2.4 WSW 30 37 16 20 1021.5 1021.5 2.6
18/08:00pm 11.5 4.4 6.2 70 2.5 WSW 33 44 18 24 1021.4 1021.4 2.6
18/07:30pm 11.5 4.5 6.0 69 2.6 WSW 32 41 17 22 1020.9 1020.9 2.6
18/07:00pm 11.5 5.0 6.6 72 2.3 WSW 30 39 16 21 1020.2 1020.2 2.6
18/06:32pm 12.4 5.5 6.5 67 2.8 SW 32 50 17 27 1019.5 1019.5 2.6
18/06:30pm 12.5 5.8 5.7 63 3.2 SW 30 39 16 21 1019.5 1019.5 2.6
18/06:00pm 12.0 5.2 5.0 62 3.2 SW 30 41 16 22 1019.2 1019.2 2.6
18/05:30pm 12.9 5.2 5.3 60 3.5 WSW 35 54 19 29 1018.5 1018.5 2.6
18/05:28pm 13.0 5.3 5.2 59 3.6 WSW 35 54 19 29 1018.3 1018.3 2.6
18/05:00pm 13.3 6.1 5.9 61 3.5 SW 33 46 18 25 1018.0 1018.0 2.6
18/04:30pm 13.6 5.9 5.3 57 3.9 SW 35 50 19 27 1017.1 1017.1 2.6
18/04:00pm 14.0 5.2 5.4 56 4.0 SW 41 50 22 27 1016.7 1016.7 2.6
18/03:30pm 14.4 5.4 6.3 58 3.9 SW 43 56 23 30 1016.2 1016.2 2.6
18/03:00pm 13.7 4.6 6.1 60 3.6 SW 43 56 23 30 1015.8 1015.8 2.6

Latest Capital City Observations: Canberra | Sydney | Melbourne | Brisbane | Adelaide | Perth | Hobart | Darwin

Other Formats:

Comma delimited format used in spreadsheet applications
http://www.bom.gov.au/fwo/IDS60901/IDS60901.95676.axf

JavaScript Object Notation format (JSON) in row-major order
http://www.bom.gov.au/fwo/IDS60901/IDS60901.95676.json